GLO9196 SBGL-SBSV
Flight info
| Callsign | GLO9196 |
|---|---|
| Flight time | 1h 34m |
| Altitude | 37000 |
| Route | IMBAP UZ42 SIRAP DCT OSAGU DCT ZUMBA |
| Aircraft | B738/M-SDFGIKLORWXY/LB1 |
Departure
| Time | 2026-05-07 02:02 |
|---|---|
| Airport | Rio Galeão – Tom Jobim International Airport (SBGL) |
Arrival
| Time | 2026-05-07 03:36 |
|---|---|
| Airport | Deputado Luiz Eduardo Magalhães International Airport (SBSV) |
| Time | Latitude | Longitude | Altitude | Speed | Heading |
|---|---|---|---|---|---|
| 2026-05-07 01:26 | -22.81044 | -43.25327 | 21 ft | 0 kts | 93° |
| 2026-05-07 01:31 | -22.81105 | -43.25317 | 21 ft | 0 kts | 76° |
| 2026-05-07 01:54 | -22.81109 | -43.25334 | 21 ft | 4 kts | 68° |
| 2026-05-07 01:54 | -22.81122 | -43.25358 | 21 ft | 4 kts | 42° |
| 2026-05-07 01:54 | -22.81143 | -43.25370 | 21 ft | 4 kts | 352° |
| 2026-05-07 01:55 | -22.81153 | -43.25368 | 21 ft | 1 kts | 344° |
| 2026-05-07 01:56 | -22.81150 | -43.25369 | 21 ft | 1 kts | 344° |
| 2026-05-07 01:57 | -22.81127 | -43.25376 | 21 ft | 6 kts | 346° |
| 2026-05-07 01:57 | -22.81070 | -43.25385 | 21 ft | 11 kts | 355° |
| 2026-05-07 01:57 | -22.80983 | -43.25384 | 23 ft | 14 kts | 346° |
| 2026-05-07 01:57 | -22.80931 | -43.25465 | 27 ft | 13 kts | 294° |
| 2026-05-07 01:58 | -22.80892 | -43.25553 | 27 ft | 13 kts | 296° |
| 2026-05-07 01:58 | -22.80840 | -43.25652 | 26 ft | 16 kts | 302° |
| 2026-05-07 01:58 | -22.80747 | -43.25670 | 27 ft | 16 kts | 34° |
| 2026-05-07 01:58 | -22.80661 | -43.25602 | 28 ft | 15 kts | 36° |
| 2026-05-07 01:59 | -22.80577 | -43.25539 | 29 ft | 14 kts | 30° |
| 2026-05-07 01:59 | -22.80489 | -43.25560 | 30 ft | 14 kts | 328° |
| 2026-05-07 01:59 | -22.80410 | -43.25614 | 28 ft | 13 kts | 339° |
| 2026-05-07 01:59 | -22.80331 | -43.25579 | 29 ft | 13 kts | 39° |
| 2026-05-07 02:00 | -22.80256 | -43.25518 | 26 ft | 13 kts | 35° |
| 2026-05-07 02:00 | -22.80184 | -43.25458 | 26 ft | 13 kts | 42° |
| 2026-05-07 02:00 | -22.80163 | -43.25413 | 28 ft | 0 kts | 75° |
| 2026-05-07 02:01 | -22.80131 | -43.25286 | 26 ft | 47 kts | 74° |
| 2026-05-07 02:01 | -22.79985 | -43.24729 | 29 ft | 104 kts | 74° |
| 2026-05-07 02:01 | -22.79747 | -43.23820 | 28 ft | 147 kts | 74° |
| 2026-05-07 02:02 | -22.79447 | -43.22648 | 216 ft | 168 kts | 76° |
| 2026-05-07 02:02 | -22.79152 | -43.21438 | 806 ft | 166 kts | 76° |
| 2026-05-07 02:02 | -22.78883 | -43.20215 | 1335 ft | 167 kts | 76° |
| 2026-05-07 02:02 | -22.78617 | -43.18976 | 1833 ft | 174 kts | 76° |
| 2026-05-07 02:03 | -22.78323 | -43.17606 | 2068 ft | 200 kts | 76° |
| 2026-05-07 02:03 | -22.77992 | -43.16056 | 2261 ft | 222 kts | 76° |
| 2026-05-07 02:03 | -22.77629 | -43.14343 | 2425 ft | 245 kts | 76° |
| 2026-05-07 02:03 | -22.77233 | -43.12475 | 2821 ft | 259 kts | 76° |
| 2026-05-07 02:04 | -22.76827 | -43.10551 | 3473 ft | 264 kts | 76° |
| 2026-05-07 02:04 | -22.76417 | -43.08604 | 4158 ft | 266 kts | 76° |
| 2026-05-07 02:04 | -22.76003 | -43.06646 | 4860 ft | 268 kts | 77° |
| 2026-05-07 02:04 | -22.75585 | -43.04669 | 5528 ft | 270 kts | 76° |
| 2026-05-07 02:05 | -22.75165 | -43.02704 | 6238 ft | 272 kts | 75° |
| 2026-05-07 02:05 | -22.74313 | -43.00890 | 6884 ft | 274 kts | 46° |
| 2026-05-07 02:05 | -22.72739 | -42.99744 | 7546 ft | 277 kts | 21° |
| 2026-05-07 02:05 | -22.70860 | -42.99228 | 8223 ft | 280 kts | 11° |
| 2026-05-07 02:06 | -22.68925 | -42.98872 | 8914 ft | 284 kts | 9° |
| 2026-05-07 02:06 | -22.66962 | -42.98538 | 9631 ft | 287 kts | 9° |
| 2026-05-07 02:06 | -22.64976 | -42.98198 | 10350 ft | 291 kts | 9° |
| 2026-05-07 02:06 | -22.62918 | -42.97838 | 10611 ft | 311 kts | 10° |
| 2026-05-07 02:07 | -22.60703 | -42.97443 | 10774 ft | 333 kts | 10° |
| 2026-05-07 02:07 | -22.55856 | -42.96563 | 11153 ft | 368 kts | 10° |
| 2026-05-07 02:07 | -22.53336 | -42.96102 | 11596 ft | 375 kts | 10° |
| 2026-05-07 02:08 | -22.50756 | -42.95627 | 12199 ft | 376 kts | 10° |
| 2026-05-07 02:08 | -22.48171 | -42.95152 | 12796 ft | 379 kts | 10° |
| 2026-05-07 02:08 | -22.45545 | -42.94668 | 13311 ft | 385 kts | 10° |
| 2026-05-07 02:08 | -22.42890 | -42.94179 | 13848 ft | 389 kts | 10° |
| 2026-05-07 02:09 | -22.40221 | -42.93688 | 14383 ft | 391 kts | 10° |
| 2026-05-07 02:09 | -22.37516 | -42.93190 | 14874 ft | 396 kts | 10° |
| 2026-05-07 02:09 | -22.34793 | -42.92689 | 15357 ft | 400 kts | 10° |
| 2026-05-07 02:09 | -22.32006 | -42.92396 | 15841 ft | 404 kts | 0° |
| 2026-05-07 02:10 | -22.29193 | -42.92655 | 16352 ft | 408 kts | 351° |
| 2026-05-07 02:10 | -22.26385 | -42.93175 | 16869 ft | 411 kts | 350° |
| 2026-05-07 02:10 | -22.23556 | -42.93688 | 17311 ft | 415 kts | 351° |
| 2026-05-07 02:10 | -22.20686 | -42.94179 | 17763 ft | 419 kts | 351° |
| 2026-05-07 02:11 | -22.17769 | -42.94434 | 18218 ft | 422 kts | 3° |
| 2026-05-07 02:11 | -22.14878 | -42.93879 | 18695 ft | 424 kts | 18° |
| 2026-05-07 02:11 | -22.12190 | -42.92575 | 19098 ft | 426 kts | 32° |
| 2026-05-07 02:11 | -22.09697 | -42.90835 | 19497 ft | 428 kts | 33° |
| 2026-05-07 02:12 | -22.07203 | -42.89055 | 19896 ft | 431 kts | 34° |
| 2026-05-07 02:12 | -22.04724 | -42.87289 | 20313 ft | 433 kts | 33° |
| 2026-05-07 02:12 | -22.02193 | -42.85500 | 20752 ft | 435 kts | 33° |
| 2026-05-07 02:12 | -21.99652 | -42.83720 | 21153 ft | 438 kts | 33° |
| 2026-05-07 02:13 | -21.97085 | -42.81932 | 21539 ft | 441 kts | 32° |
| 2026-05-07 02:13 | -21.94497 | -42.80138 | 21924 ft | 444 kts | 32° |
| 2026-05-07 02:13 | -21.91893 | -42.78336 | 22314 ft | 446 kts | 32° |
| 2026-05-07 02:13 | -21.89265 | -42.76520 | 22706 ft | 449 kts | 32° |
| 2026-05-07 02:14 | -21.86634 | -42.74703 | 23063 ft | 452 kts | 32° |
| 2026-05-07 02:14 | -21.83981 | -42.72870 | 23429 ft | 454 kts | 32° |
| 2026-05-07 02:14 | -21.81312 | -42.71026 | 23774 ft | 457 kts | 32° |
| 2026-05-07 02:14 | -21.78626 | -42.69171 | 24063 ft | 460 kts | 32° |
| 2026-05-07 02:15 | -21.75924 | -42.67306 | 24335 ft | 463 kts | 32° |
| 2026-05-07 02:15 | -21.73204 | -42.65429 | 24595 ft | 466 kts | 32° |
| 2026-05-07 02:15 | -21.70469 | -42.63542 | 24878 ft | 468 kts | 32° |
| 2026-05-07 02:15 | -21.67711 | -42.61640 | 25160 ft | 471 kts | 32° |
| 2026-05-07 02:16 | -21.64943 | -42.59733 | 25427 ft | 474 kts | 33° |
| 2026-05-07 02:16 | -21.62134 | -42.57859 | 25684 ft | 476 kts | 30° |
| 2026-05-07 02:16 | -21.59232 | -42.56118 | 25942 ft | 479 kts | 28° |
| 2026-05-07 02:16 | -21.56281 | -42.54430 | 26200 ft | 482 kts | 28° |
| 2026-05-07 02:17 | -21.54316 | -42.53324 | 26373 ft | 483 kts | 28° |
| 2026-05-07 02:17 | -21.50345 | -42.51092 | 26705 ft | 487 kts | 28° |
| 2026-05-07 02:17 | -21.48320 | -42.49949 | 26869 ft | 488 kts | 28° |
| 2026-05-07 02:17 | -21.44328 | -42.47677 | 27191 ft | 491 kts | 28° |
| 2026-05-07 02:18 | -21.42291 | -42.46512 | 27356 ft | 493 kts | 28° |
| 2026-05-07 02:18 | -21.38259 | -42.44198 | 27650 ft | 496 kts | 28° |
| 2026-05-07 02:18 | -21.36205 | -42.43017 | 27802 ft | 498 kts | 29° |
| 2026-05-07 02:18 | -21.33146 | -42.41258 | 28043 ft | 500 kts | 29° |
| 2026-05-07 02:19 | -21.30073 | -42.39492 | 28278 ft | 501 kts | 29° |
| 2026-05-07 02:19 | -21.27039 | -42.37751 | 28594 ft | 501 kts | 29° |
| 2026-05-07 02:19 | -21.23960 | -42.35985 | 28964 ft | 500 kts | 29° |
| 2026-05-07 02:19 | -21.20897 | -42.34229 | 29347 ft | 499 kts | 29° |
| 2026-05-07 02:20 | -21.17835 | -42.32475 | 29663 ft | 499 kts | 29° |
| 2026-05-07 02:20 | -21.14767 | -42.30718 | 29949 ft | 500 kts | 29° |
| 2026-05-07 02:20 | -21.11694 | -42.28960 | 30288 ft | 501 kts | 29° |
| 2026-05-07 02:20 | -21.08620 | -42.27202 | 30574 ft | 500 kts | 29° |
| 2026-05-07 02:21 | -21.05552 | -42.25447 | 30897 ft | 500 kts | 29° |
| 2026-05-07 02:21 | -21.02487 | -42.23696 | 31233 ft | 499 kts | 29° |
| 2026-05-07 02:21 | -20.99426 | -42.21948 | 31532 ft | 499 kts | 29° |
| 2026-05-07 02:21 | -20.96363 | -42.20199 | 31825 ft | 499 kts | 29° |
| 2026-05-07 02:22 | -20.93301 | -42.18451 | 32165 ft | 498 kts | 28° |
| 2026-05-07 02:22 | -20.90251 | -42.16711 | 32544 ft | 496 kts | 28° |
| 2026-05-07 02:22 | -20.87206 | -42.14975 | 32850 ft | 496 kts | 28° |
| 2026-05-07 02:22 | -20.84158 | -42.13238 | 33109 ft | 497 kts | 28° |
| 2026-05-07 02:23 | -20.81097 | -42.11494 | 33366 ft | 498 kts | 28° |
| 2026-05-07 02:23 | -20.78041 | -42.09753 | 33654 ft | 497 kts | 28° |
| 2026-05-07 02:23 | -20.75022 | -42.08035 | 33973 ft | 497 kts | 28° |
| 2026-05-07 02:23 | -20.71974 | -42.06301 | 34266 ft | 496 kts | 28° |
| 2026-05-07 02:24 | -20.68918 | -42.04562 | 34487 ft | 497 kts | 28° |
| 2026-05-07 02:24 | -20.65864 | -42.02826 | 34676 ft | 498 kts | 28° |
| 2026-05-07 02:24 | -20.62798 | -42.01094 | 34878 ft | 499 kts | 27° |
| 2026-05-07 02:24 | -20.59617 | -41.99607 | 35068 ft | 500 kts | 20° |
| 2026-05-07 02:25 | -20.56342 | -41.98349 | 35290 ft | 500 kts | 19° |
| 2026-05-07 02:25 | -20.53054 | -41.97158 | 35635 ft | 498 kts | 19° |
| 2026-05-07 02:25 | -20.49770 | -41.95985 | 35858 ft | 498 kts | 19° |
| 2026-05-07 02:25 | -20.46482 | -41.94802 | 35993 ft | 500 kts | 19° |
| 2026-05-07 02:26 | -20.43185 | -41.93598 | 36155 ft | 501 kts | 19° |
| 2026-05-07 02:26 | -20.39889 | -41.92379 | 36360 ft | 501 kts | 19° |
| 2026-05-07 02:26 | -20.36590 | -41.91148 | 36583 ft | 501 kts | 20° |
| 2026-05-07 02:26 | -20.33301 | -41.89914 | 36776 ft | 502 kts | 20° |
| 2026-05-07 02:27 | -20.30006 | -41.88676 | 36953 ft | 502 kts | 20° |
| 2026-05-07 02:27 | -20.26712 | -41.87437 | 37122 ft | 503 kts | 20° |
| 2026-05-07 02:27 | -20.23403 | -41.86195 | 37319 ft | 503 kts | 20° |
| 2026-05-07 02:27 | -20.20100 | -41.84956 | 37519 ft | 503 kts | 20° |
| 2026-05-07 02:28 | -20.16790 | -41.83716 | 37662 ft | 504 kts | 20° |
| 2026-05-07 02:28 | -20.13472 | -41.82473 | 37765 ft | 506 kts | 20° |
| 2026-05-07 02:28 | -20.10145 | -41.81226 | 37922 ft | 507 kts | 20° |
| 2026-05-07 02:28 | -20.06818 | -41.79983 | 38120 ft | 506 kts | 20° |
| 2026-05-07 02:29 | -20.03490 | -41.78740 | 38336 ft | 506 kts | 20° |
| 2026-05-07 02:29 | -20.00176 | -41.77504 | 38550 ft | 506 kts | 20° |
| 2026-05-07 02:29 | -19.96868 | -41.76269 | 38899 ft | 501 kts | 20° |
| 2026-05-07 02:29 | -19.93582 | -41.75043 | 39074 ft | 500 kts | 20° |
| 2026-05-07 02:30 | -19.86996 | -41.72586 | 39184 ft | 503 kts | 20° |
| 2026-05-07 02:30 | -19.80369 | -41.70117 | 39188 ft | 506 kts | 20° |
| 2026-05-07 02:31 | -19.73741 | -41.67648 | 39179 ft | 509 kts | 20° |
| 2026-05-07 02:31 | -19.67043 | -41.65157 | 39168 ft | 511 kts | 20° |
| 2026-05-07 02:32 | -19.60331 | -41.62663 | 39185 ft | 511 kts | 20° |
| 2026-05-07 02:32 | -19.53620 | -41.60170 | 39164 ft | 511 kts | 20° |
| 2026-05-07 02:33 | -19.46920 | -41.57685 | 39171 ft | 509 kts | 20° |
| 2026-05-07 02:33 | -19.40236 | -41.55207 | 39187 ft | 507 kts | 19° |
| 2026-05-07 02:34 | -19.33600 | -41.52749 | 39168 ft | 504 kts | 19° |
| 2026-05-07 02:34 | -19.26994 | -41.50305 | 39164 ft | 501 kts | 19° |
| 2026-05-07 02:35 | -19.20436 | -41.47880 | 39161 ft | 498 kts | 19° |
| 2026-05-07 02:35 | -19.13904 | -41.45467 | 39161 ft | 495 kts | 19° |
| 2026-05-07 02:36 | -19.07405 | -41.43068 | 39166 ft | 494 kts | 19° |
| 2026-05-07 02:36 | -19.00946 | -41.40686 | 39157 ft | 494 kts | 19° |
| 2026-05-07 02:37 | -18.94453 | -41.38293 | 39164 ft | 496 kts | 19° |
| 2026-05-07 02:37 | -18.87913 | -41.35885 | 39176 ft | 498 kts | 19° |
| 2026-05-07 02:38 | -18.81357 | -41.33473 | 39177 ft | 501 kts | 19° |
| 2026-05-07 02:38 | -18.74753 | -41.31046 | 39170 ft | 503 kts | 19° |
| 2026-05-07 02:39 | -18.68136 | -41.28616 | 39166 ft | 505 kts | 19° |
| 2026-05-07 02:39 | -18.61486 | -41.26175 | 39168 ft | 506 kts | 19° |
| 2026-05-07 02:40 | -18.54878 | -41.23752 | 39155 ft | 506 kts | 19° |
| 2026-05-07 02:40 | -18.48230 | -41.21316 | 39163 ft | 506 kts | 19° |
| 2026-05-07 02:41 | -18.41589 | -41.18885 | 39163 ft | 505 kts | 19° |
| 2026-05-07 02:41 | -18.34959 | -41.16460 | 39162 ft | 504 kts | 19° |
| 2026-05-07 02:42 | -18.28343 | -41.14042 | 39160 ft | 503 kts | 19° |
| 2026-05-07 02:42 | -18.21734 | -41.11629 | 39162 ft | 502 kts | 19° |
| 2026-05-07 02:43 | -18.15145 | -41.09224 | 39163 ft | 501 kts | 19° |
| 2026-05-07 02:43 | -18.08559 | -41.06823 | 39151 ft | 501 kts | 19° |
| 2026-05-07 02:44 | -18.01978 | -41.04425 | 39166 ft | 500 kts | 19° |
| 2026-05-07 02:44 | -17.95398 | -41.02028 | 39165 ft | 500 kts | 19° |
| 2026-05-07 02:45 | -17.88882 | -40.99562 | 39152 ft | 500 kts | 22° |
| 2026-05-07 02:45 | -17.82475 | -40.96710 | 39162 ft | 501 kts | 24° |
| 2026-05-07 02:46 | -17.76084 | -40.93760 | 39166 ft | 501 kts | 24° |
| 2026-05-07 02:46 | -17.69678 | -40.90841 | 39174 ft | 502 kts | 24° |
| 2026-05-07 02:47 | -17.63252 | -40.87951 | 39163 ft | 503 kts | 23° |
| 2026-05-07 02:47 | -17.56810 | -40.85067 | 39154 ft | 503 kts | 23° |
| 2026-05-07 02:48 | -17.50415 | -40.82208 | 39158 ft | 502 kts | 23° |
| 2026-05-07 02:48 | -17.43997 | -40.79338 | 39162 ft | 502 kts | 23° |
| 2026-05-07 02:49 | -17.37572 | -40.76466 | 39146 ft | 501 kts | 23° |
| 2026-05-07 02:49 | -17.31160 | -40.73601 | 39153 ft | 501 kts | 23° |
| 2026-05-07 02:50 | -17.24763 | -40.70746 | 39158 ft | 500 kts | 23° |
| 2026-05-07 02:50 | -17.18359 | -40.67890 | 39170 ft | 499 kts | 23° |
| 2026-05-07 02:51 | -17.12007 | -40.65062 | 39156 ft | 498 kts | 23° |
| 2026-05-07 02:51 | -17.05634 | -40.62227 | 39158 ft | 497 kts | 23° |
| 2026-05-07 02:52 | -16.99265 | -40.59395 | 39156 ft | 496 kts | 23° |
| 2026-05-07 02:52 | -16.92913 | -40.56571 | 39161 ft | 495 kts | 23° |
| 2026-05-07 02:53 | -16.86578 | -40.53756 | 39150 ft | 494 kts | 23° |
| 2026-05-07 02:53 | -16.80250 | -40.50947 | 39170 ft | 494 kts | 23° |
| 2026-05-07 02:54 | -16.73927 | -40.48142 | 39164 ft | 494 kts | 23° |
| 2026-05-07 02:54 | -16.67646 | -40.45358 | 39162 ft | 494 kts | 23° |
| 2026-05-07 02:55 | -16.61328 | -40.42559 | 39151 ft | 493 kts | 23° |
| 2026-05-07 02:55 | -16.55014 | -40.39764 | 39151 ft | 492 kts | 23° |
| 2026-05-07 02:56 | -16.48696 | -40.36970 | 39169 ft | 492 kts | 23° |
| 2026-05-07 02:56 | -16.42378 | -40.34177 | 39163 ft | 492 kts | 23° |
| 2026-05-07 02:57 | -16.36073 | -40.31392 | 39145 ft | 492 kts | 23° |
| 2026-05-07 02:57 | -16.29769 | -40.28609 | 39152 ft | 492 kts | 23° |
| 2026-05-07 02:58 | -16.23465 | -40.25829 | 39150 ft | 492 kts | 23° |
| 2026-05-07 02:58 | -16.17191 | -40.23064 | 39135 ft | 492 kts | 23° |
| 2026-05-07 02:59 | -16.10884 | -40.20285 | 39143 ft | 492 kts | 23° |
| 2026-05-07 02:59 | -16.04580 | -40.17511 | 39137 ft | 492 kts | 23° |
| 2026-05-07 03:00 | -15.98277 | -40.14738 | 39138 ft | 492 kts | 23° |
| 2026-05-07 03:00 | -15.91977 | -40.11969 | 39128 ft | 492 kts | 23° |
| 2026-05-07 03:01 | -15.85678 | -40.09202 | 39137 ft | 491 kts | 23° |
| 2026-05-07 03:01 | -15.79370 | -40.06433 | 39136 ft | 492 kts | 22° |
| 2026-05-07 03:02 | -15.74128 | -40.04133 | 39131 ft | 492 kts | 23° |
| 2026-05-07 03:02 | -15.67824 | -40.01369 | 39129 ft | 491 kts | 22° |
| 2026-05-07 03:03 | -15.61522 | -39.98609 | 39129 ft | 491 kts | 22° |
| 2026-05-07 03:03 | -15.55217 | -39.95848 | 39130 ft | 491 kts | 22° |
| 2026-05-07 03:04 | -15.48920 | -39.93093 | 39126 ft | 490 kts | 22° |
| 2026-05-07 03:04 | -15.42678 | -39.90363 | 39124 ft | 490 kts | 22° |
| 2026-05-07 03:05 | -15.36392 | -39.87616 | 39124 ft | 489 kts | 22° |
| 2026-05-07 03:05 | -15.30113 | -39.84874 | 39128 ft | 489 kts | 22° |
| 2026-05-07 03:06 | -15.23841 | -39.82137 | 39125 ft | 489 kts | 22° |
| 2026-05-07 03:06 | -15.17570 | -39.79402 | 39130 ft | 488 kts | 22° |
| 2026-05-07 03:07 | -15.11304 | -39.76670 | 39120 ft | 488 kts | 22° |
| 2026-05-07 03:07 | -15.05090 | -39.73963 | 39125 ft | 487 kts | 22° |
| 2026-05-07 03:08 | -14.98843 | -39.71242 | 39118 ft | 487 kts | 22° |
| 2026-05-07 03:08 | -14.92714 | -39.68256 | 39113 ft | 487 kts | 26° |
| 2026-05-07 03:09 | -14.86671 | -39.65085 | 39114 ft | 487 kts | 26° |
| 2026-05-07 03:09 | -14.80617 | -39.61924 | 39114 ft | 487 kts | 26° |
| 2026-05-07 03:10 | -14.74540 | -39.58798 | 39106 ft | 487 kts | 26° |
| 2026-05-07 03:10 | -14.68483 | -39.55702 | 39112 ft | 487 kts | 26° |
| 2026-05-07 03:11 | -14.62355 | -39.52574 | 38547 ft | 494 kts | 26° |
| 2026-05-07 03:11 | -14.59318 | -39.51023 | 38029 ft | 489 kts | 26° |
| 2026-05-07 03:11 | -14.56273 | -39.49468 | 37370 ft | 488 kts | 26° |
| 2026-05-07 03:12 | -14.53235 | -39.47917 | 36769 ft | 487 kts | 26° |
| 2026-05-07 03:12 | -14.50201 | -39.46369 | 36163 ft | 485 kts | 26° |
| 2026-05-07 03:12 | -14.47173 | -39.44824 | 35508 ft | 485 kts | 26° |
| 2026-05-07 03:12 | -14.44144 | -39.43278 | 34848 ft | 486 kts | 26° |
| 2026-05-07 03:13 | -14.41112 | -39.41732 | 34145 ft | 486 kts | 26° |
| 2026-05-07 03:13 | -14.38075 | -39.40185 | 33355 ft | 487 kts | 26° |
| 2026-05-07 03:13 | -14.35049 | -39.38642 | 32591 ft | 486 kts | 26° |
| 2026-05-07 03:13 | -14.32020 | -39.37099 | 31831 ft | 485 kts | 26° |
| 2026-05-07 03:14 | -14.29035 | -39.35579 | 31064 ft | 484 kts | 25° |
| 2026-05-07 03:14 | -14.25983 | -39.34024 | 30340 ft | 482 kts | 26° |
| 2026-05-07 03:14 | -14.19971 | -39.30965 | 28413 ft | 482 kts | 25° |
| 2026-05-07 03:15 | -14.17001 | -39.29454 | 27469 ft | 482 kts | 26° |
| 2026-05-07 03:15 | -14.13996 | -39.27926 | 26501 ft | 482 kts | 26° |
| 2026-05-07 03:15 | -14.10981 | -39.26394 | 25543 ft | 483 kts | 26° |
| 2026-05-07 03:15 | -14.07981 | -39.24869 | 24856 ft | 478 kts | 26° |
| 2026-05-07 03:16 | -14.05007 | -39.23358 | 24124 ft | 474 kts | 26° |
| 2026-05-07 03:16 | -14.02056 | -39.21859 | 23359 ft | 471 kts | 26° |
| 2026-05-07 03:16 | -13.99130 | -39.20373 | 22565 ft | 466 kts | 26° |
| 2026-05-07 03:16 | -13.96231 | -39.18901 | 21834 ft | 461 kts | 27° |
| 2026-05-07 03:17 | -13.93370 | -39.17450 | 21128 ft | 455 kts | 27° |
| 2026-05-07 03:17 | -13.90544 | -39.16016 | 20430 ft | 450 kts | 27° |
| 2026-05-07 03:17 | -13.87778 | -39.14612 | 19760 ft | 446 kts | 27° |
| 2026-05-07 03:17 | -13.84970 | -39.13188 | 19058 ft | 442 kts | 27° |
| 2026-05-07 03:18 | -13.82263 | -39.11816 | 18364 ft | 439 kts | 27° |
| 2026-05-07 03:18 | -13.79538 | -39.10434 | 17596 ft | 436 kts | 27° |
| 2026-05-07 03:18 | -13.76827 | -39.09059 | 16883 ft | 431 kts | 27° |
| 2026-05-07 03:18 | -13.74152 | -39.07704 | 16201 ft | 426 kts | 27° |
| 2026-05-07 03:19 | -13.71505 | -39.06364 | 15531 ft | 421 kts | 27° |
| 2026-05-07 03:19 | -13.68952 | -39.04917 | 14863 ft | 416 kts | 36° |
| 2026-05-07 03:19 | -13.66677 | -39.03112 | 14220 ft | 411 kts | 40° |
| 2026-05-07 03:19 | -13.64488 | -39.01237 | 13493 ft | 409 kts | 41° |
| 2026-05-07 03:20 | -13.62312 | -38.99366 | 12793 ft | 405 kts | 41° |
| 2026-05-07 03:20 | -13.60158 | -38.97538 | 12138 ft | 400 kts | 40° |
| 2026-05-07 03:20 | -13.58021 | -38.95750 | 11489 ft | 391 kts | 40° |
| 2026-05-07 03:20 | -13.55950 | -38.94036 | 11279 ft | 371 kts | 40° |
| 2026-05-07 03:21 | -13.54010 | -38.92441 | 11109 ft | 355 kts | 40° |
| 2026-05-07 03:21 | -13.52098 | -38.90871 | 10954 ft | 339 kts | 40° |
| 2026-05-07 03:21 | -13.50296 | -38.89393 | 10810 ft | 323 kts | 40° |
| 2026-05-07 03:21 | -13.48600 | -38.88003 | 10670 ft | 309 kts | 40° |
| 2026-05-07 03:22 | -13.46957 | -38.86654 | 10551 ft | 295 kts | 40° |
| 2026-05-07 03:22 | -13.45381 | -38.85361 | 10429 ft | 283 kts | 40° |
| 2026-05-07 03:22 | -13.43877 | -38.84127 | 10314 ft | 271 kts | 41° |
| 2026-05-07 03:22 | -13.42431 | -38.82941 | 10205 ft | 261 kts | 41° |
| 2026-05-07 03:23 | -13.41025 | -38.81788 | 10107 ft | 257 kts | 41° |
| 2026-05-07 03:23 | -13.39626 | -38.80641 | 9877 ft | 256 kts | 41° |
| 2026-05-07 03:23 | -13.38245 | -38.79509 | 9622 ft | 252 kts | 41° |
| 2026-05-07 03:23 | -13.36886 | -38.78394 | 9394 ft | 249 kts | 41° |
| 2026-05-07 03:24 | -13.35538 | -38.77288 | 9140 ft | 248 kts | 41° |
| 2026-05-07 03:24 | -13.34196 | -38.76186 | 8883 ft | 246 kts | 41° |
| 2026-05-07 03:24 | -13.32855 | -38.75086 | 8621 ft | 246 kts | 41° |
| 2026-05-07 03:24 | -13.31522 | -38.73991 | 8366 ft | 245 kts | 41° |
| 2026-05-07 03:25 | -13.30193 | -38.72901 | 8104 ft | 244 kts | 41° |
| 2026-05-07 03:25 | -13.28866 | -38.71813 | 7845 ft | 244 kts | 41° |
| 2026-05-07 03:25 | -13.27540 | -38.70725 | 7580 ft | 244 kts | 41° |
| 2026-05-07 03:25 | -13.26207 | -38.69632 | 7277 ft | 246 kts | 41° |
| 2026-05-07 03:26 | -13.24866 | -38.68537 | 7018 ft | 246 kts | 41° |
| 2026-05-07 03:26 | -13.23550 | -38.67459 | 6759 ft | 246 kts | 41° |
| 2026-05-07 03:26 | -13.22211 | -38.66361 | 6507 ft | 246 kts | 41° |
| 2026-05-07 03:26 | -13.20873 | -38.65265 | 6215 ft | 246 kts | 41° |
| 2026-05-07 03:27 | -13.19537 | -38.64169 | 5942 ft | 246 kts | 41° |
| 2026-05-07 03:27 | -13.18206 | -38.63076 | 5682 ft | 245 kts | 42° |
| 2026-05-07 03:27 | -13.16874 | -38.61981 | 5422 ft | 245 kts | 42° |
| 2026-05-07 03:27 | -13.15543 | -38.60890 | 5158 ft | 245 kts | 41° |
| 2026-05-07 03:28 | -13.14219 | -38.59809 | 4983 ft | 240 kts | 41° |
| 2026-05-07 03:28 | -13.12923 | -38.58757 | 4837 ft | 235 kts | 41° |
| 2026-05-07 03:28 | -13.11659 | -38.57732 | 4704 ft | 228 kts | 41° |
| 2026-05-07 03:28 | -13.10431 | -38.56736 | 4572 ft | 222 kts | 41° |
| 2026-05-07 03:29 | -13.09224 | -38.55756 | 4460 ft | 220 kts | 41° |
| 2026-05-07 03:29 | -13.08029 | -38.54780 | 4357 ft | 220 kts | 42° |
| 2026-05-07 03:29 | -13.06831 | -38.53805 | 4236 ft | 220 kts | 42° |
| 2026-05-07 03:29 | -13.05635 | -38.52835 | 4133 ft | 218 kts | 41° |
| 2026-05-07 03:30 | -13.04440 | -38.51933 | 4013 ft | 210 kts | 30° |
| 2026-05-07 03:30 | -13.03024 | -38.51605 | 3825 ft | 208 kts | 9° |
| 2026-05-07 03:30 | -13.01577 | -38.51410 | 3653 ft | 210 kts | 11° |
| 2026-05-07 03:30 | -13.00136 | -38.51192 | 3475 ft | 208 kts | 11° |
| 2026-05-07 03:31 | -12.98726 | -38.50981 | 3286 ft | 202 kts | 11° |
| 2026-05-07 03:31 | -12.97362 | -38.50775 | 3104 ft | 199 kts | 11° |
| 2026-05-07 03:31 | -12.96013 | -38.50558 | 2910 ft | 192 kts | 18° |
| 2026-05-07 03:31 | -12.94918 | -38.49916 | 2740 ft | 177 kts | 49° |
| 2026-05-07 03:32 | -12.94334 | -38.48850 | 2615 ft | 170 kts | 78° |
| 2026-05-07 03:32 | -12.94006 | -38.47686 | 2438 ft | 171 kts | 78° |
| 2026-05-07 03:32 | -12.93723 | -38.46505 | 2311 ft | 171 kts | 80° |
| 2026-05-07 03:32 | -12.93475 | -38.45325 | 2159 ft | 163 kts | 81° |
| 2026-05-07 03:33 | -12.93258 | -38.44251 | 2075 ft | 150 kts | 82° |
| 2026-05-07 03:33 | -12.93048 | -38.43201 | 1924 ft | 151 kts | 82° |
| 2026-05-07 03:33 | -12.92839 | -38.42152 | 1741 ft | 147 kts | 81° |
| 2026-05-07 03:33 | -12.92634 | -38.41130 | 1528 ft | 145 kts | 82° |
| 2026-05-07 03:34 | -12.92432 | -38.40123 | 1371 ft | 143 kts | 81° |
| 2026-05-07 03:34 | -12.92229 | -38.39108 | 1168 ft | 146 kts | 80° |
| 2026-05-07 03:34 | -12.92025 | -38.38098 | 996 ft | 143 kts | 81° |
| 2026-05-07 03:34 | -12.91824 | -38.37089 | 810 ft | 144 kts | 82° |
| 2026-05-07 03:35 | -12.91626 | -38.36100 | 609 ft | 145 kts | 84° |
| 2026-05-07 03:35 | -12.91426 | -38.35090 | 428 ft | 144 kts | 81° |
| 2026-05-07 03:35 | -12.91225 | -38.34109 | 217 ft | 135 kts | 84° |
| 2026-05-07 03:35 | -12.91042 | -38.33173 | 62 ft | 133 kts | 83° |
| 2026-05-07 03:36 | -12.90876 | -38.32343 | 51 ft | 95 kts | 76° |
| 2026-05-07 03:36 | -12.90786 | -38.31904 | 47 ft | 31 kts | 78° |
| 2026-05-07 03:36 | -12.90765 | -38.31800 | 46 ft | 12 kts | 79° |
| 2026-05-07 03:36 | -12.90799 | -38.31729 | 46 ft | 12 kts | 149° |
| 2026-05-07 03:37 | -12.90873 | -38.31711 | 51 ft | 11 kts | 184° |
| 2026-05-07 03:37 | -12.90917 | -38.31765 | 49 ft | 10 kts | 253° |
| 2026-05-07 03:37 | -12.90933 | -38.31835 | 51 ft | 10 kts | 258° |
| 2026-05-07 03:37 | -12.90947 | -38.31904 | 52 ft | 10 kts | 257° |
| 2026-05-07 03:38 | -12.90962 | -38.31971 | 52 ft | 10 kts | 257° |
| 2026-05-07 03:38 | -12.90976 | -38.32037 | 51 ft | 9 kts | 260° |
| 2026-05-07 03:38 | -12.90987 | -38.32101 | 49 ft | 9 kts | 260° |
| 2026-05-07 03:38 | -12.90998 | -38.32165 | 52 ft | 9 kts | 260° |
| 2026-05-07 03:39 | -12.91011 | -38.32228 | 52 ft | 9 kts | 257° |
| 2026-05-07 03:39 | -12.91025 | -38.32288 | 52 ft | 9 kts | 258° |
| 2026-05-07 03:39 | -12.91036 | -38.32348 | 52 ft | 8 kts | 259° |
| 2026-05-07 03:39 | -12.91048 | -38.32410 | 49 ft | 9 kts | 259° |
| 2026-05-07 03:40 | -12.91060 | -38.32472 | 49 ft | 9 kts | 259° |
| 2026-05-07 03:40 | -12.91072 | -38.32533 | 51 ft | 10 kts | 258° |
| 2026-05-07 03:40 | -12.91088 | -38.32614 | 51 ft | 14 kts | 259° |
| 2026-05-07 03:40 | -12.91111 | -38.32732 | 49 ft | 20 kts | 258° |
| 2026-05-07 03:41 | -12.91142 | -38.32878 | 47 ft | 21 kts | 259° |
| 2026-05-07 03:41 | -12.91170 | -38.33021 | 44 ft | 20 kts | 258° |
| 2026-05-07 03:41 | -12.91197 | -38.33152 | 43 ft | 15 kts | 256° |
| 2026-05-07 03:41 | -12.91285 | -38.33170 | 41 ft | 14 kts | 168° |
| 2026-05-07 03:42 | -12.91380 | -38.33150 | 43 ft | 14 kts | 168° |
| 2026-05-07 03:42 | -12.91471 | -38.33146 | 43 ft | 13 kts | 196° |
| 2026-05-07 03:42 | -12.91523 | -38.33211 | 41 ft | 13 kts | 258° |
| 2026-05-07 03:42 | -12.91512 | -38.33285 | 40 ft | 10 kts | 339° |
| 2026-05-07 03:43 | -12.91479 | -38.33290 | 43 ft | 1 kts | 353° |
| 2026-05-07 03:43 | -12.91477 | -38.33290 | 43 ft | 0 kts | 352° |